sensor_id;sensor_type;location;lat;lon;timestamp;temperature;humidity
19483;DHT22;9882;51.166;6.992;2022-09-28T04:01:14;9.20;99.90
19483;DHT22;9882;51.166;6.992;2022-09-28T04:03:45;9.40;99.90
19483;DHT22;9882;51.166;6.992;2022-09-28T04:06:14;9.30;99.90
19483;DHT22;9882;51.166;6.992;2022-09-28T04:08:43;9.20;99.90
19483;DHT22;9882;51.166;6.992;2022-09-28T04:11:11;9.10;99.90
19483;DHT22;9882;51.166;6.992;2022-09-28T04:13:40;9.00;99.90
19483;DHT22;9882;51.166;6.992;2022-09-28T04:16:14;9.00;99.90
19483;DHT22;9882;51.166;6.992;2022-09-28T04:18:51;8.90;99.90
19483;DHT22;9882;51.166;6.992;2022-09-28T04:21:40;9.00;99.90
19483;DHT22;9882;51.166;6.992;2022-09-28T04:24:12;9.20;99.90
19483;DHT22;9882;51.166;6.992;2022-09-28T04:26:40;9.20;99.90
19483;DHT22;9882;51.166;6.992;2022-09-28T04:29:11;9.30;99.90
19483;DHT22;9882;51.166;6.992;2022-09-28T04:31:55;9.40;99.90
19483;DHT22;9882;51.166;6.992;2022-09-28T04:34:31;9.30;99.90
19483;DHT22;9882;51.166;6.992;2022-09-28T04:37:02;9.40;99.90
19483;DHT22;9882;51.166;6.992;2022-09-28T04:39:31;9.50;99.90
19483;DHT22;9882;51.166;6.992;2022-09-28T04:42:00;9.60;99.90
19483;DHT22;9882;51.166;6.992;2022-09-28T04:44:28;9.60;99.90
19483;DHT22;9882;51.166;6.992;2022-09-28T04:47:03;9.50;99.90
19483;DHT22;9882;51.166;6.992;2022-09-28T04:49:32;9.60;99.90
19483;DHT22;9882;51.166;6.992;2022-09-28T04:52:08;9.40;99.90
19483;DHT22;9882;51.166;6.992;2022-09-28T04:54:40;9.50;99.90
19483;DHT22;9882;51.166;6.992;2022-09-28T04:57:08;9.20;99.90
19483;DHT22;9882;51.166;6.992;2022-09-28T04:59:38;9.10;99.90
19483;DHT22;9882;51.166;6.992;2022-09-28T05:02:08;9.10;99.90
19483;DHT22;9882;51.166;6.992;2022-09-28T05:05:03;9.00;99.90
19483;DHT22;9882;51.166;6.992;2022-09-28T05:07:47;9.10;99.90
19483;DHT22;9882;51.166;6.992;2022-09-28T05:10:16;9.00;99.90
19483;DHT22;9882;51.166;6.992;2022-09-28T05:12:46;9.10;99.90
19483;DHT22;9882;51.166;6.992;2022-09-28T05:15:16;8.90;99.90
19483;DHT22;9882;51.166;6.992;2022-09-28T05:17:51;9.00;99.90
19483;DHT22;9882;51.166;6.992;2022-09-28T05:20:28;8.90;99.90
19483;DHT22;9882;51.166;6.992;2022-09-28T05:22:57;8.90;99.90
19483;DHT22;9882;51.166;6.992;2022-09-28T05:25:25;8.80;99.90
19483;DHT22;9882;51.166;6.992;2022-09-28T05:28:26;8.80;99.90
19483;DHT22;9882;51.166;6.992;2022-09-28T05:31:14;9.10;99.90
19483;DHT22;9882;51.166;6.992;2022-09-28T05:34:03;9.00;99.90
19483;DHT22;9882;51.166;6.992;2022-09-28T05:36:31;8.90;99.90
19483;DHT22;9882;51.166;6.992;2022-09-28T05:39:01;9.10;99.90
19483;DHT22;9882;51.166;6.992;2022-09-28T05:41:31;9.10;99.90
19483;DHT22;9882;51.166;6.992;2022-09-28T05:44:00;9.30;99.90
19483;DHT22;9882;51.166;6.992;2022-09-28T05:46:30;9.10;99.90
19483;DHT22;9882;51.166;6.992;2022-09-28T05:49:01;9.10;99.90
19483;DHT22;9882;51.166;6.992;2022-09-28T05:51:30;9.30;99.90
19483;DHT22;9882;51.166;6.992;2022-09-28T05:53:59;9.20;99.90
19483;DHT22;9882;51.166;6.992;2022-09-28T05:56:31;9.30;99.90
19483;DHT22;9882;51.166;6.992;2022-09-28T05:59:03;9.20;99.90
19483;DHT22;9882;51.166;6.992;2022-09-28T06:01:33;8.90;99.90
19483;DHT22;9882;51.166;6.992;2022-09-28T06:04:04;8.80;99.90
19483;DHT22;9882;51.166;6.992;2022-09-28T06:06:36;9.10;99.90
19483;DHT22;9882;51.166;6.992;2022-09-28T06:09:05;9.00;99.90
19483;DHT22;9882;51.166;6.992;2022-09-28T06:11:53;8.90;99.90
19483;DHT22;9882;51.166;6.992;2022-09-28T06:14:43;8.90;99.90
19483;DHT22;9882;51.166;6.992;2022-09-28T06:17:13;9.10;99.90
19483;DHT22;9882;51.166;6.992;2022-09-28T06:19:48;9.10;99.90
19483;DHT22;9882;51.166;6.992;2022-09-28T06:22:25;9.10;99.90
19483;DHT22;9882;51.166;6.992;2022-09-28T06:25:02;9.00;99.90
19483;DHT22;9882;51.166;6.992;2022-09-28T06:27:31;8.80;99.90
19483;DHT22;9882;51.166;6.992;2022-09-28T06:30:01;8.80;99.90
19483;DHT22;9882;51.166;6.992;2022-09-28T06:32:30;8.80;99.90
19483;DHT22;9882;51.166;6.992;2022-09-28T06:35:00;8.80;99.90
19483;DHT22;9882;51.166;6.992;2022-09-28T06:37:30;8.90;99.90
19483;DHT22;9882;51.166;6.992;2022-09-28T06:40:01;9.00;99.90
19483;DHT22;9882;51.166;6.992;2022-09-28T06:42:31;9.00;99.90
19483;DHT22;9882;51.166;6.992;2022-09-28T06:45:20;8.80;99.90
19483;DHT22;9882;51.166;6.992;2022-09-28T06:48:10;8.90;99.90
19483;DHT22;9882;51.166;6.992;2022-09-28T06:50:43;9.00;99.90
19483;DHT22;9882;51.166;6.992;2022-09-28T06:53:26;8.90;99.90
19483;DHT22;9882;51.166;6.992;2022-09-28T06:55:58;8.80;99.90
19483;DHT22;9882;51.166;6.992;2022-09-28T06:58:29;9.00;99.90
19483;DHT22;9882;51.166;6.992;2022-09-28T07:01:00;8.70;99.90
19483;DHT22;9882;51.166;6.992;2022-09-28T07:03:39;8.80;99.90
19483;DHT22;9882;51.166;6.992;2022-09-28T07:06:31;8.70;99.90
19483;DHT22;9882;51.166;6.992;2022-09-28T07:09:29;8.80;99.90
19483;DHT22;9882;51.166;6.992;2022-09-28T07:12:10;8.80;99.90
19483;DHT22;9882;51.166;6.992;2022-09-28T07:15:00;8.90;99.90
19483;DHT22;9882;51.166;6.992;2022-09-28T07:17:29;9.00;99.90
19483;DHT22;9882;51.166;6.992;2022-09-28T07:20:03;9.00;99.90
19483;DHT22;9882;51.166;6.992;2022-09-28T07:22:42;9.00;99.90
19483;DHT22;9882;51.166;6.992;2022-09-28T07:25:17;8.80;99.90
19483;DHT22;9882;51.166;6.992;2022-09-28T07:28:07;9.00;99.90
19483;DHT22;9882;51.166;6.992;2022-09-28T07:30:55;8.90;99.90
19483;DHT22;9882;51.166;6.992;2022-09-28T07:33:57;9.00;99.90
19483;DHT22;9882;51.166;6.992;2022-09-28T07:36:34;9.00;99.90
19483;DHT22;9882;51.166;6.992;2022-09-28T07:39:05;9.10;99.90
19483;DHT22;9882;51.166;6.992;2022-09-28T07:41:34;9.10;99.90
19483;DHT22;9882;51.166;6.992;2022-09-28T07:44:05;9.30;99.90
19483;DHT22;9882;51.166;6.992;2022-09-28T07:46:36;9.30;99.90
19483;DHT22;9882;51.166;6.992;2022-09-28T07:49:11;9.30;99.90
19483;DHT22;9882;51.166;6.992;2022-09-28T07:51:56;9.30;99.90
19483;DHT22;9882;51.166;6.992;2022-09-28T07:54:29;9.50;99.90
19483;DHT22;9882;51.166;6.992;2022-09-28T07:57:37;9.20;99.90
19483;DHT22;9882;51.166;6.992;2022-09-28T08:00:30;9.20;99.90
19483;DHT22;9882;51.166;6.992;2022-09-28T08:03:01;9.00;99.90
19483;DHT22;9882;51.166;6.992;2022-09-28T08:05:32;9.20;99.90
19483;DHT22;9882;51.166;6.992;2022-09-28T08:08:02;9.10;99.90
19483;DHT22;9882;51.166;6.992;2022-09-28T08:10:32;9.20;99.90
19483;DHT22;9882;51.166;6.992;2022-09-28T08:13:18;9.30;99.90
19483;DHT22;9882;51.166;6.992;2022-09-28T08:16:00;9.50;99.90
19483;DHT22;9882;51.166;6.992;2022-09-28T08:18:38;9.50;99.90
19483;DHT22;9882;51.166;6.992;2022-09-28T08:21:08;9.40;99.90
19483;DHT22;9882;51.166;6.992;2022-09-28T08:23:55;9.50;99.90
19483;DHT22;9882;51.166;6.992;2022-09-28T08:26:25;9.40;99.90
19483;DHT22;9882;51.166;6.992;2022-09-28T08:28:55;9.50;99.90
19483;DHT22;9882;51.166;6.992;2022-09-28T08:31:43;9.40;99.90
19483;DHT22;9882;51.166;6.992;2022-09-28T08:34:30;9.50;99.90
19483;DHT22;9882;51.166;6.992;2022-09-28T08:37:19;9.60;99.90
19483;DHT22;9882;51.166;6.992;2022-09-28T08:40:14;9.70;99.90
19483;DHT22;9882;51.166;6.992;2022-09-28T08:43:21;9.80;99.90
19483;DHT22;9882;51.166;6.992;2022-09-28T08:46:33;9.50;99.90
19483;DHT22;9882;51.166;6.992;2022-09-28T08:49:27;9.60;99.90
19483;DHT22;9882;51.166;6.992;2022-09-28T08:52:32;9.60;99.90
19483;DHT22;9882;51.166;6.992;2022-09-28T08:55:13;9.60;99.90
19483;DHT22;9882;51.166;6.992;2022-09-28T08:57:49;9.50;99.90
19483;DHT22;9882;51.166;6.992;2022-09-28T09:00:29;9.60;99.90
19483;DHT22;9882;51.166;6.992;2022-09-28T09:03:04;9.60;99.90
19483;DHT22;9882;51.166;6.992;2022-09-28T09:05:47;9.70;99.90
19483;DHT22;9882;51.166;6.992;2022-09-28T09:08:48;9.80;99.90
19483;DHT22;9882;51.166;6.992;2022-09-28T09:11:29;9.80;99.90
19483;DHT22;9882;51.166;6.992;2022-09-28T09:14:10;9.70;99.90
19483;DHT22;9882;51.166;6.992;2022-09-28T09:16:52;9.70;99.90
19483;DHT22;9882;51.166;6.992;2022-09-28T09:19:53;9.70;99.90
19483;DHT22;9882;51.166;6.992;2022-09-28T09:22:38;9.80;99.90
19483;DHT22;9882;51.166;6.992;2022-09-28T09:25:17;9.90;99.90
19483;DHT22;9882;51.166;6.992;2022-09-28T09:28:15;9.80;99.90
19483;DHT22;9882;51.166;6.992;2022-09-28T09:31:01;10.00;99.90
19483;DHT22;9882;51.166;6.992;2022-09-28T09:33:54;10.00;99.90
19483;DHT22;9882;51.166;6.992;2022-09-28T09:37:01;10.00;99.90
19483;DHT22;9882;51.166;6.992;2022-09-28T09:40:03;10.20;99.90
19483;DHT22;9882;51.166;6.992;2022-09-28T09:43:04;10.10;99.90
19483;DHT22;9882;51.166;6.992;2022-09-28T09:46:06;10.10;99.90
19483;DHT22;9882;51.166;6.992;2022-09-28T09:48:59;10.20;99.90
19483;DHT22;9882;51.166;6.992;2022-09-28T09:51:35;10.20;99.90
19483;DHT22;9882;51.166;6.992;2022-09-28T09:54:12;10.30;99.90
19483;DHT22;9882;51.166;6.992;2022-09-28T09:56:46;10.40;99.90
19483;DHT22;9882;51.166;6.992;2022-09-28T09:59:39;10.20;99.90
19483;DHT22;9882;51.166;6.992;2022-09-28T10:02:23;10.40;99.90
19483;DHT22;9882;51.166;6.992;2022-09-28T10:05:15;10.50;99.90
19483;DHT22;9882;51.166;6.992;2022-09-28T10:07:50;10.60;99.90
19483;DHT22;9882;51.166;6.992;2022-09-28T10:10:25;10.40;99.90
19483;DHT22;9882;51.166;6.992;2022-09-28T10:13:05;10.50;99.90
19483;DHT22;9882;51.166;6.992;2022-09-28T10:15:35;10.40;99.90
19483;DHT22;9882;51.166;6.992;2022-09-28T10:18:15;10.40;99.90
19483;DHT22;9882;51.166;6.992;2022-09-28T10:21:11;10.50;99.90
19483;DHT22;9882;51.166;6.992;2022-09-28T10:23:53;10.50;99.90
19483;DHT22;9882;51.166;6.992;2022-09-28T10:26:24;10.70;99.90
19483;DHT22;9882;51.166;6.992;2022-09-28T10:28:58;10.60;99.90
19483;DHT22;9882;51.166;6.992;2022-09-28T10:31:39;10.60;99.90
19483;DHT22;9882;51.166;6.992;2022-09-28T10:34:25;10.60;99.90
19483;DHT22;9882;51.166;6.992;2022-09-28T10:36:58;10.60;99.90
19483;DHT22;9882;51.166;6.992;2022-09-28T10:39:46;10.70;99.90
19483;DHT22;9882;51.166;6.992;2022-09-28T10:42:24;10.70;99.90
19483;DHT22;9882;51.166;6.992;2022-09-28T10:44:58;10.80;99.90
19483;DHT22;9882;51.166;6.992;2022-09-28T10:47:37;10.80;99.90
19483;DHT22;9882;51.166;6.992;2022-09-28T10:50:19;10.90;99.90
19483;DHT22;9882;51.166;6.992;2022-09-28T10:53:09;10.90;99.90
19483;DHT22;9882;51.166;6.992;2022-09-28T10:56:02;11.00;99.90
19483;DHT22;9882;51.166;6.992;2022-09-28T10:58:35;11.00;99.90
19483;DHT22;9882;51.166;6.992;2022-09-28T11:01:12;11.10;99.90
19483;DHT22;9882;51.166;6.992;2022-09-28T11:03:52;11.20;99.90
19483;DHT22;9882;51.166;6.992;2022-09-28T11:06:24;11.10;99.90
19483;DHT22;9882;51.166;6.992;2022-09-28T11:08:58;11.20;99.90
19483;DHT22;9882;51.166;6.992;2022-09-28T11:11:28;11.30;99.90
19483;DHT22;9882;51.166;6.992;2022-09-28T11:14:04;11.30;99.90
19483;DHT22;9882;51.166;6.992;2022-09-28T11:19:27;11.30;99.90
19483;DHT22;9882;51.166;6.992;2022-09-28T11:21:56;11.30;99.90
19483;DHT22;9882;51.166;6.992;2022-09-28T11:24:34;11.20;99.90
19483;DHT22;9882;51.166;6.992;2022-09-28T11:27:03;11.10;99.90
19483;DHT22;9882;51.166;6.992;2022-09-28T11:29:36;11.10;99.90
19483;DHT22;9882;51.166;6.992;2022-09-28T11:32:30;11.20;99.90
19483;DHT22;9882;51.166;6.992;2022-09-28T11:35:44;11.20;99.90
19483;DHT22;9882;51.166;6.992;2022-09-28T11:38:38;11.30;99.90
19483;DHT22;9882;51.166;6.992;2022-09-28T11:41:40;11.40;99.90
19483;DHT22;9882;51.166;6.992;2022-09-28T11:44:31;11.40;99.90
19483;DHT22;9882;51.166;6.992;2022-09-28T11:47:28;11.50;99.90
19483;DHT22;9882;51.166;6.992;2022-09-28T11:50:03;11.60;99.90
19483;DHT22;9882;51.166;6.992;2022-09-28T11:52:40;11.70;99.90
19483;DHT22;9882;51.166;6.992;2022-09-28T11:55:13;11.60;99.90
19483;DHT22;9882;51.166;6.992;2022-09-28T11:57:53;11.60;99.90
19483;DHT22;9882;51.166;6.992;2022-09-28T12:00:22;11.70;99.90
19483;DHT22;9882;51.166;6.992;2022-09-28T12:03:03;11.60;99.90
19483;DHT22;9882;51.166;6.992;2022-09-28T12:05:35;11.60;99.90
19483;DHT22;9882;51.166;6.992;2022-09-28T12:08:11;11.50;99.90
19483;DHT22;9882;51.166;6.992;2022-09-28T12:11:01;11.60;99.90
19483;DHT22;9882;51.166;6.992;2022-09-28T12:14:17;11.60;99.90
19483;DHT22;9882;51.166;6.992;2022-09-28T12:16:50;11.70;99.90
19483;DHT22;9882;51.166;6.992;2022-09-28T12:19:33;11.70;99.90
19483;DHT22;9882;51.166;6.992;2022-09-28T12:22:10;11.60;99.90
19483;DHT22;9882;51.166;6.992;2022-09-28T12:24:45;11.60;99.90
19483;DHT22;9882;51.166;6.992;2022-09-28T12:27:19;11.50;99.90
19483;DHT22;9882;51.166;6.992;2022-09-28T12:30:03;11.50;99.90
19483;DHT22;9882;51.166;6.992;2022-09-28T12:32:35;11.60;99.90
19483;DHT22;9882;51.166;6.992;2022-09-28T12:35:11;11.50;99.90
19483;DHT22;9882;51.166;6.992;2022-09-28T12:37:52;11.40;99.90
19483;DHT22;9882;51.166;6.992;2022-09-28T12:40:36;10.90;99.90
19483;DHT22;9882;51.166;6.992;2022-09-28T12:43:17;11.00;99.90
19483;DHT22;9882;51.166;6.992;2022-09-28T12:46:15;11.10;99.90
19483;DHT22;9882;51.166;6.992;2022-09-28T12:49:01;11.30;99.90
19483;DHT22;9882;51.166;6.992;2022-09-28T12:51:53;11.40;99.90
19483;DHT22;9882;51.166;6.992;2022-09-28T12:54:35;11.70;99.90
19483;DHT22;9882;51.166;6.992;2022-09-28T12:57:31;11.80;99.90
19483;DHT22;9882;51.166;6.992;2022-09-28T13:00:05;12.00;99.90
19483;DHT22;9882;51.166;6.992;2022-09-28T13:02:49;12.00;99.90
19483;DHT22;9882;51.166;6.992;2022-09-28T13:05:45;12.10;99.90
19483;DHT22;9882;51.166;6.992;2022-09-28T13:08:21;12.10;99.90
19483;DHT22;9882;51.166;6.992;2022-09-28T13:11:02;12.10;99.90
19483;DHT22;9882;51.166;6.992;2022-09-28T13:13:41;12.00;99.90
19483;DHT22;9882;51.166;6.992;2022-09-28T13:16:17;12.00;99.90
19483;DHT22;9882;51.166;6.992;2022-09-28T13:18:58;12.10;99.90
19483;DHT22;9882;51.166;6.992;2022-09-28T13:21:35;12.10;99.90
19483;DHT22;9882;51.166;6.992;2022-09-28T13:24:08;12.20;99.90
19483;DHT22;9882;51.166;6.992;2022-09-28T13:27:02;12.30;99.90
19483;DHT22;9882;51.166;6.992;2022-09-28T13:29:32;12.20;99.90
19483;DHT22;9882;51.166;6.992;2022-09-28T13:32:02;12.30;99.90
19483;DHT22;9882;51.166;6.992;2022-09-28T13:34:35;12.20;99.90
19483;DHT22;9882;51.166;6.992;2022-09-28T13:37:16;12.20;99.90
19483;DHT22;9882;51.166;6.992;2022-09-28T13:39:47;12.10;99.90
19483;DHT22;9882;51.166;6.992;2022-09-28T13:45:24;12.30;99.90
19483;DHT22;9882;51.166;6.992;2022-09-28T13:48:14;12.30;99.90
19483;DHT22;9882;51.166;6.992;2022-09-28T13:50:58;12.40;99.90
19483;DHT22;9882;51.166;6.992;2022-09-28T13:53:40;13.20;99.90
19483;DHT22;9882;51.166;6.992;2022-09-28T13:56:23;14.10;99.90
19483;DHT22;9882;51.166;6.992;2022-09-28T13:58:57;14.00;99.90
19483;DHT22;9882;51.166;6.992;2022-09-28T14:01:30;14.60;99.90
19483;DHT22;9882;51.166;6.992;2022-09-28T14:04:11;14.80;99.90
19483;DHT22;9882;51.166;6.992;2022-09-28T14:06:43;15.20;99.90
19483;DHT22;9882;51.166;6.992;2022-09-28T14:12:27;15.70;99.90
19483;DHT22;9882;51.166;6.992;2022-09-28T14:14:56;15.60;99.90
19483;DHT22;9882;51.166;6.992;2022-09-28T14:17:52;15.70;99.90
19483;DHT22;9882;51.166;6.992;2022-09-28T14:20:24;14.80;99.90
19483;DHT22;9882;51.166;6.992;2022-09-28T14:23:14;15.00;99.90
19483;DHT22;9882;51.166;6.992;2022-09-28T14:26:04;15.70;99.90
19483;DHT22;9882;51.166;6.992;2022-09-28T14:28:43;15.80;99.90
19483;DHT22;9882;51.166;6.992;2022-09-28T14:31:22;14.70;99.90
19483;DHT22;9882;51.166;6.992;2022-09-28T14:33:56;14.40;99.90
19483;DHT22;9882;51.166;6.992;2022-09-28T14:36:30;14.10;99.90
19483;DHT22;9882;51.166;6.992;2022-09-28T14:39:27;13.70;99.90
19483;DHT22;9882;51.166;6.992;2022-09-28T14:42:17;14.70;99.90
19483;DHT22;9882;51.166;6.992;2022-09-28T14:45:32;15.80;99.90
19483;DHT22;9882;51.166;6.992;2022-09-28T14:48:17;16.40;99.90
19483;DHT22;9882;51.166;6.992;2022-09-28T14:50:47;17.00;99.90
19483;DHT22;9882;51.166;6.992;2022-09-28T14:53:21;16.60;99.90
19483;DHT22;9882;51.166;6.992;2022-09-28T14:55:57;15.80;99.90
19483;DHT22;9882;51.166;6.992;2022-09-28T14:58:27;16.10;99.90
19483;DHT22;9882;51.166;6.992;2022-09-28T15:01:01;16.40;99.90
19483;DHT22;9882;51.166;6.992;2022-09-28T15:03:32;16.70;99.90
19483;DHT22;9882;51.166;6.992;2022-09-28T15:06:01;16.80;99.90
19483;DHT22;9882;51.166;6.992;2022-09-28T15:08:37;16.70;99.90
19483;DHT22;9882;51.166;6.992;2022-09-28T15:11:12;17.40;99.90
19483;DHT22;9882;51.166;6.992;2022-09-28T15:13:42;17.20;99.90
19483;DHT22;9882;51.166;6.992;2022-09-28T15:16:12;16.90;99.90
19483;DHT22;9882;51.166;6.992;2022-09-28T15:19:02;17.30;99.90
19483;DHT22;9882;51.166;6.992;2022-09-28T15:21:35;16.80;99.90
19483;DHT22;9882;51.166;6.992;2022-09-28T15:24:29;17.40;99.90
19483;DHT22;9882;51.166;6.992;2022-09-28T15:27:01;16.90;99.90
19483;DHT22;9882;51.166;6.992;2022-09-28T15:29:30;16.90;99.90
19483;DHT22;9882;51.166;6.992;2022-09-28T15:31:59;17.00;99.90
19483;DHT22;9882;51.166;6.992;2022-09-28T15:34:29;16.50;99.90
19483;DHT22;9882;51.166;6.992;2022-09-28T15:37:18;15.30;99.90
19483;DHT22;9882;51.166;6.992;2022-09-28T15:39:49;14.90;99.90
19483;DHT22;9882;51.166;6.992;2022-09-28T15:48:44;14.30;99.90
19483;DHT22;9882;51.166;6.992;2022-09-28T15:51:14;14.30;99.90
19483;DHT22;9882;51.166;6.992;2022-09-28T15:53:53;14.50;99.90
19483;DHT22;9882;51.166;6.992;2022-09-28T15:56:24;14.60;99.90
19483;DHT22;9882;51.166;6.992;2022-09-28T15:59:08;14.50;99.90
19483;DHT22;9882;51.166;6.992;2022-09-28T16:01:39;14.70;99.90
19483;DHT22;9882;51.166;6.992;2022-09-28T16:07:27;14.70;99.90
19483;DHT22;9882;51.166;6.992;2022-09-28T16:10:00;13.90;99.90
19483;DHT22;9882;51.166;6.992;2022-09-28T16:12:39;13.30;99.90
19483;DHT22;9882;51.166;6.992;2022-09-28T16:15:14;12.50;99.90
19483;DHT22;9882;51.166;6.992;2022-09-28T16:17:51;11.90;99.90
19483;DHT22;9882;51.166;6.992;2022-09-28T16:20:26;11.60;99.90
19483;DHT22;9882;51.166;6.992;2022-09-28T16:22:59;10.60;99.90
19483;DHT22;9882;51.166;6.992;2022-09-28T16:25:34;10.30;99.90
19483;DHT22;9882;51.166;6.992;2022-09-28T16:28:05;10.90;99.90
19483;DHT22;9882;51.166;6.992;2022-09-28T16:30:35;10.30;99.90
19483;DHT22;9882;51.166;6.992;2022-09-28T16:33:07;10.00;99.90
19483;DHT22;9882;51.166;6.992;2022-09-28T16:35:53;10.00;99.90
19483;DHT22;9882;51.166;6.992;2022-09-28T16:38:23;11.10;99.90
19483;DHT22;9882;51.166;6.992;2022-09-28T16:40:52;11.50;99.90
19483;DHT22;9882;51.166;6.992;2022-09-28T16:43:23;11.70;99.90
19483;DHT22;9882;51.166;6.992;2022-09-28T16:45:53;11.30;99.90
19483;DHT22;9882;51.166;6.992;2022-09-28T16:48:25;12.10;99.90
19483;DHT22;9882;51.166;6.992;2022-09-28T16:50:54;11.80;99.90
19483;DHT22;9882;51.166;6.992;2022-09-28T16:53:24;11.80;99.90
19483;DHT22;9882;51.166;6.992;2022-09-28T16:56:11;11.50;99.90
19483;DHT22;9882;51.166;6.992;2022-09-28T16:58:40;11.30;99.90
19483;DHT22;9882;51.166;6.992;2022-09-28T17:01:09;10.80;99.90
19483;DHT22;9882;51.166;6.992;2022-09-28T17:03:38;10.60;99.90
19483;DHT22;9882;51.166;6.992;2022-09-28T17:06:09;10.60;99.90
19483;DHT22;9882;51.166;6.992;2022-09-28T17:08:40;11.50;99.90
19483;DHT22;9882;51.166;6.992;2022-09-28T17:11:12;12.00;99.90
19483;DHT22;9882;51.166;6.992;2022-09-28T17:13:44;12.30;99.90
19483;DHT22;9882;51.166;6.992;2022-09-28T17:16:15;12.50;99.90
19483;DHT22;9882;51.166;6.992;2022-09-28T17:18:44;11.20;99.90
19483;DHT22;9882;51.166;6.992;2022-09-28T17:21:15;12.00;99.90
19483;DHT22;9882;51.166;6.992;2022-09-28T17:23:47;12.40;99.90
19483;DHT22;9882;51.166;6.992;2022-09-28T17:26:18;11.50;99.90
19483;DHT22;9882;51.166;6.992;2022-09-28T17:28:48;12.20;99.90
19483;DHT22;9882;51.166;6.992;2022-09-28T17:31:16;12.40;99.90
19483;DHT22;9882;51.166;6.992;2022-09-28T17:33:45;12.60;99.90
19483;DHT22;9882;51.166;6.992;2022-09-28T17:36:16;12.70;99.90
19483;DHT22;9882;51.166;6.992;2022-09-28T17:38:47;12.80;99.90
19483;DHT22;9882;51.166;6.992;2022-09-28T17:41:18;12.80;99.90
19483;DHT22;9882;51.166;6.992;2022-09-28T17:43:47;12.80;99.90
19483;DHT22;9882;51.166;6.992;2022-09-28T17:46:24;12.80;99.90
19483;DHT22;9882;51.166;6.992;2022-09-28T17:48:55;12.80;99.90
19483;DHT22;9882;51.166;6.992;2022-09-28T17:51:26;12.70;99.90
19483;DHT22;9882;51.166;6.992;2022-09-28T17:53:57;12.70;99.90
19483;DHT22;9882;51.166;6.992;2022-09-28T17:56:27;12.70;99.90
19483;DHT22;9882;51.166;6.992;2022-09-28T17:58:59;12.70;99.90
19483;DHT22;9882;51.166;6.992;2022-09-28T18:01:29;12.70;99.90
19483;DHT22;9882;51.166;6.992;2022-09-28T18:04:00;12.70;99.90
19483;DHT22;9882;51.166;6.992;2022-09-28T18:06:29;12.70;99.90
19483;DHT22;9882;51.166;6.992;2022-09-28T18:09:02;12.70;99.90
19483;DHT22;9882;51.166;6.992;2022-09-28T18:11:31;12.70;99.90
19483;DHT22;9882;51.166;6.992;2022-09-28T18:14:00;12.70;99.90
19483;DHT22;9882;51.166;6.992;2022-09-28T18:16:28;12.70;99.90
19483;DHT22;9882;51.166;6.992;2022-09-28T18:18:57;12.70;99.90
19483;DHT22;9882;51.166;6.992;2022-09-28T18:21:26;12.70;99.90
19483;DHT22;9882;51.166;6.992;2022-09-28T18:23:54;12.60;99.90
19483;DHT22;9882;51.166;6.992;2022-09-28T18:26:24;12.60;99.90
19483;DHT22;9882;51.166;6.992;2022-09-28T18:28:53;12.60;99.90
19483;DHT22;9882;51.166;6.992;2022-09-28T18:31:22;12.50;99.90
19483;DHT22;9882;51.166;6.992;2022-09-28T18:33:56;12.50;99.90
19483;DHT22;9882;51.166;6.992;2022-09-28T18:36:29;12.50;99.90
19483;DHT22;9882;51.166;6.992;2022-09-28T18:38:59;12.40;99.90
19483;DHT22;9882;51.166;6.992;2022-09-28T18:41:29;12.40;99.90
19483;DHT22;9882;51.166;6.992;2022-09-28T18:43:58;12.30;99.90
19483;DHT22;9882;51.166;6.992;2022-09-28T18:46:28;12.30;99.90
19483;DHT22;9882;51.166;6.992;2022-09-28T18:48:57;12.30;99.90
19483;DHT22;9882;51.166;6.992;2022-09-28T18:51:26;12.30;99.90
19483;DHT22;9882;51.166;6.992;2022-09-28T18:53:54;12.30;99.90
19483;DHT22;9882;51.166;6.992;2022-09-28T18:56:23;12.30;99.90
19483;DHT22;9882;51.166;6.992;2022-09-28T18:58:53;12.30;99.90
19483;DHT22;9882;51.166;6.992;2022-09-28T19:01:23;12.20;99.90
19483;DHT22;9882;51.166;6.992;2022-09-28T19:03:58;12.20;99.90
19483;DHT22;9882;51.166;6.992;2022-09-28T19:06:27;12.20;99.90
19483;DHT22;9882;51.166;6.992;2022-09-28T19:08:56;12.20;99.90
19483;DHT22;9882;51.166;6.992;2022-09-28T19:11:25;12.20;99.90
19483;DHT22;9882;51.166;6.992;2022-09-28T19:13:56;12.10;99.90
19483;DHT22;9882;51.166;6.992;2022-09-28T19:16:26;12.10;99.90
19483;DHT22;9882;51.166;6.992;2022-09-28T19:18:56;12.10;99.90
19483;DHT22;9882;51.166;6.992;2022-09-28T19:21:25;12.10;99.90
19483;DHT22;9882;51.166;6.992;2022-09-28T19:23:54;12.00;99.90
19483;DHT22;9882;51.166;6.992;2022-09-28T19:26:25;12.00;99.90
19483;DHT22;9882;51.166;6.992;2022-09-28T19:28:56;11.90;99.90
19483;DHT22;9882;51.166;6.992;2022-09-28T19:31:25;11.90;99.90
19483;DHT22;9882;51.166;6.992;2022-09-28T19:33:54;11.80;99.90
19483;DHT22;9882;51.166;6.992;2022-09-28T19:36:24;11.80;99.90
19483;DHT22;9882;51.166;6.992;2022-09-28T19:38:55;11.90;99.90
19483;DHT22;9882;51.166;6.992;2022-09-28T19:41:25;11.80;99.90
19483;DHT22;9882;51.166;6.992;2022-09-28T19:44:14;11.80;99.90
19483;DHT22;9882;51.166;6.992;2022-09-28T19:46:51;11.80;99.90
19483;DHT22;9882;51.166;6.992;2022-09-28T19:49:21;11.70;99.90
19483;DHT22;9882;51.166;6.992;2022-09-28T19:51:51;11.70;99.90
19483;DHT22;9882;51.166;6.992;2022-09-28T19:54:37;11.60;99.90
19483;DHT22;9882;51.166;6.992;2022-09-28T19:57:06;11.60;99.90
19483;DHT22;9882;51.166;6.992;2022-09-28T19:59:37;11.60;99.90
19483;DHT22;9882;51.166;6.992;2022-09-28T20:02:06;11.60;99.90
19483;DHT22;9882;51.166;6.992;2022-09-28T20:04:35;11.60;99.90
19483;DHT22;9882;51.166;6.992;2022-09-28T20:07:06;11.60;99.90
19483;DHT22;9882;51.166;6.992;2022-09-28T20:09:38;11.60;99.90
19483;DHT22;9882;51.166;6.992;2022-09-28T20:12:11;11.60;99.90
19483;DHT22;9882;51.166;6.992;2022-09-28T20:14:43;11.70;99.90
19483;DHT22;9882;51.166;6.992;2022-09-28T20:17:13;11.50;99.90
19483;DHT22;9882;51.166;6.992;2022-09-28T20:22:39;11.50;99.90
19483;DHT22;9882;51.166;6.992;2022-09-28T20:25:08;11.40;99.90
19483;DHT22;9882;51.166;6.992;2022-09-28T20:27:37;11.40;99.90
19483;DHT22;9882;51.166;6.992;2022-09-28T20:33:40;11.40;99.90
19483;DHT22;9882;51.166;6.992;2022-09-28T20:36:11;11.20;99.90
19483;DHT22;9882;51.166;6.992;2022-09-28T20:38:40;11.30;99.90
19483;DHT22;9882;51.166;6.992;2022-09-28T20:41:09;11.20;99.90
19483;DHT22;9882;51.166;6.992;2022-09-28T20:43:39;11.30;99.90
19483;DHT22;9882;51.166;6.992;2022-09-28T20:46:09;11.30;99.90
19483;DHT22;9882;51.166;6.992;2022-09-28T20:48:40;11.20;99.90
19483;DHT22;9882;51.166;6.992;2022-09-28T20:51:10;11.20;99.90
19483;DHT22;9882;51.166;6.992;2022-09-28T20:53:41;11.20;99.90
19483;DHT22;9882;51.166;6.992;2022-09-28T20:56:12;11.20;99.90
19483;DHT22;9882;51.166;6.992;2022-09-28T20:58:41;11.20;99.90
19483;DHT22;9882;51.166;6.992;2022-09-28T21:01:12;11.20;99.90
19483;DHT22;9882;51.166;6.992;2022-09-28T21:03:46;11.20;99.90
19483;DHT22;9882;51.166;6.992;2022-09-28T21:06:17;11.10;99.90
19483;DHT22;9882;51.166;6.992;2022-09-28T21:08:46;11.20;99.90
19483;DHT22;9882;51.166;6.992;2022-09-28T21:11:17;11.20;99.90
19483;DHT22;9882;51.166;6.992;2022-09-28T21:13:46;11.20;99.90
19483;DHT22;9882;51.166;6.992;2022-09-28T21:16:15;11.20;99.90